createdAt,value
2023-04-16T00:00:47.058Z,0.00
2023-04-16T00:01:46.229Z,0.00
2023-04-16T00:02:46.243Z,0.00
2023-04-16T00:03:46.441Z,0.00
2023-04-16T00:04:46.123Z,0.00
2023-04-16T00:05:46.109Z,0.00
2023-04-16T00:06:46.088Z,0.00
2023-04-16T00:07:46.074Z,0.00
2023-04-16T00:08:46.112Z,0.00
2023-04-16T00:09:46.066Z,0.00
2023-04-16T00:10:46.037Z,0.00
2023-04-16T00:11:46.509Z,0.00
2023-04-16T00:12:46.101Z,0.00
2023-04-16T00:13:46.036Z,0.00
2023-04-16T00:14:46.018Z,0.00
2023-04-16T00:15:46.145Z,0.00
2023-04-16T00:16:46.114Z,0.00
2023-04-16T00:17:46.074Z,0.00
2023-04-16T00:18:45.970Z,0.00
2023-04-16T00:19:45.969Z,0.00
2023-04-16T00:20:45.979Z,0.00
2023-04-16T00:21:45.944Z,0.00
2023-04-16T00:22:46.169Z,0.00
2023-04-16T00:23:45.901Z,0.00
2023-04-16T00:24:45.907Z,0.00
2023-04-16T00:25:45.905Z,0.00
2023-04-16T00:26:46.005Z,0.00
2023-04-16T00:27:45.900Z,0.00
2023-04-16T00:28:45.878Z,0.00
2023-04-16T00:29:45.839Z,0.00
2023-04-16T00:30:45.851Z,0.00
2023-04-16T00:31:45.943Z,0.00
2023-04-16T00:32:45.912Z,0.00
2023-04-16T00:33:45.837Z,0.00
2023-04-16T00:34:45.815Z,0.00
2023-04-16T00:35:45.807Z,0.00
2023-04-16T00:36:45.786Z,0.00
2023-04-16T00:37:45.764Z,0.00
2023-04-16T00:38:45.800Z,0.00
2023-04-16T00:39:45.773Z,0.00
2023-04-16T00:40:45.785Z,0.00
2023-04-16T00:41:45.722Z,0.00
2023-04-16T00:42:45.819Z,0.00
2023-04-16T00:43:45.758Z,0.00
2023-04-16T00:44:45.699Z,0.00
2023-04-16T00:45:45.758Z,0.00
2023-04-16T00:46:45.751Z,0.00
2023-04-16T00:47:45.773Z,0.00
2023-04-16T00:48:45.683Z,0.00
2023-04-16T00:49:45.653Z,0.00
2023-04-16T00:50:45.646Z,0.00
2023-04-16T00:51:45.628Z,0.00
2023-04-16T00:52:45.683Z,0.00
2023-04-16T00:53:45.639Z,0.00
2023-04-16T00:54:45.602Z,0.00
2023-04-16T00:55:45.595Z,0.00
2023-04-16T00:56:45.608Z,0.00
2023-04-16T00:57:45.573Z,0.00
2023-04-16T00:58:45.594Z,0.00
2023-04-16T00:59:45.580Z,0.00
2023-04-16T01:00:45.530Z,0.00
2023-04-16T01:01:45.581Z,0.00
2023-04-16T01:02:45.588Z,0.00
2023-04-16T01:03:45.520Z,0.00
2023-04-16T01:04:45.521Z,0.00
2023-04-16T01:05:45.494Z,0.00
2023-04-16T01:06:45.539Z,0.00
2023-04-16T01:07:45.457Z,0.00
2023-04-16T01:08:45.477Z,0.00
2023-04-16T01:09:45.441Z,0.00
2023-04-16T01:10:45.466Z,0.00
2023-04-16T01:11:45.416Z,0.00
2023-04-16T01:12:45.418Z,0.00
2023-04-16T01:13:45.449Z,0.00
2023-04-16T01:14:45.380Z,0.00
2023-04-16T01:15:45.448Z,0.00
2023-04-16T01:16:45.505Z,0.00
2023-04-16T01:17:45.410Z,0.00
2023-04-16T01:18:45.347Z,0.00
2023-04-16T01:19:45.373Z,0.00
2023-04-16T01:20:45.380Z,0.00
2023-04-16T01:21:45.331Z,0.00
2023-04-16T01:22:45.338Z,0.00
2023-04-16T01:23:45.338Z,0.00
2023-04-16T01:24:45.352Z,0.00
2023-04-16T01:25:45.290Z,0.00
2023-04-16T01:26:45.304Z,0.00
2023-04-16T01:27:45.495Z,0.00
2023-04-16T01:28:45.290Z,0.00
2023-04-16T01:29:45.237Z,0.00
2023-04-16T01:30:45.266Z,0.00
2023-04-16T01:31:45.293Z,0.00
2023-04-16T01:32:45.249Z,0.00
2023-04-16T01:33:45.208Z,0.00
2023-04-16T01:34:45.207Z,0.00
2023-04-16T01:35:45.122Z,1.00
2023-04-16T01:36:45.168Z,0.00
2023-04-16T01:37:45.247Z,0.00
2023-04-16T01:38:45.187Z,0.00
2023-04-16T01:39:45.139Z,0.00
2023-04-16T01:40:45.136Z,0.00
2023-04-16T01:41:45.126Z,0.00
2023-04-16T01:42:45.094Z,0.00
2023-04-16T01:43:45.130Z,0.00
2023-04-16T01:44:45.074Z,0.00
2023-04-16T01:45:45.074Z,0.00
2023-04-16T01:46:45.091Z,0.00
2023-04-16T01:47:45.107Z,0.00
2023-04-16T01:48:45.169Z,0.00
2023-04-16T01:49:45.101Z,0.00
2023-04-16T01:50:45.013Z,0.00
2023-04-16T01:51:45.033Z,0.00
2023-04-16T01:52:45.027Z,0.00
2023-04-16T01:53:45.031Z,0.00
2023-04-16T01:54:45.032Z,0.00
2023-04-16T01:55:44.990Z,0.00
2023-04-16T01:56:45.009Z,0.00
2023-04-16T01:57:44.953Z,0.00
2023-04-16T01:58:44.968Z,0.00
2023-04-16T01:59:44.928Z,0.00
2023-04-16T02:00:44.967Z,0.00
2023-04-16T02:01:44.981Z,0.00
2023-04-16T02:02:45.105Z,0.00
2023-04-16T02:03:45.104Z,0.00
2023-04-16T02:04:44.991Z,0.00
2023-04-16T02:05:44.902Z,0.00
2023-04-16T02:06:44.895Z,0.00
2023-04-16T02:07:44.945Z,0.00
2023-04-16T02:08:44.834Z,0.00
2023-04-16T02:09:44.838Z,0.00
2023-04-16T02:10:44.840Z,0.00
2023-04-16T02:11:44.837Z,0.00
2023-04-16T02:12:44.800Z,0.00
2023-04-16T02:13:44.805Z,0.00
2023-04-16T02:14:44.781Z,0.00
2023-04-16T02:15:44.781Z,0.00
2023-04-16T02:16:44.820Z,0.00
2023-04-16T02:17:44.776Z,0.00
2023-04-16T02:18:44.798Z,0.00
2023-04-16T02:19:44.728Z,0.00
2023-04-16T02:20:44.747Z,0.00
2023-04-16T02:21:44.704Z,0.00
2023-04-16T02:22:44.718Z,0.00
2023-04-16T02:23:44.730Z,0.00
2023-04-16T02:24:44.701Z,0.00
2023-04-16T02:25:44.703Z,0.00
2023-04-16T02:26:44.644Z,0.00
2023-04-16T02:27:44.697Z,0.00
2023-04-16T02:28:44.620Z,0.00
2023-04-16T02:29:44.624Z,0.00
2023-04-16T02:30:44.679Z,0.00
2023-04-16T02:31:44.708Z,0.00
2023-04-16T02:32:44.738Z,0.00
2023-04-16T02:33:44.621Z,0.00
2023-04-16T02:34:44.563Z,0.00
2023-04-16T02:35:44.568Z,0.00
2023-04-16T02:36:44.620Z,0.00
2023-04-16T02:37:44.578Z,0.00
2023-04-16T02:38:44.567Z,0.00
2023-04-16T02:39:44.610Z,0.00
2023-04-16T02:40:44.522Z,0.00
2023-04-16T02:41:44.785Z,0.00
2023-04-16T02:42:44.538Z,0.00
2023-04-16T02:43:44.499Z,0.00
2023-04-16T02:44:44.494Z,0.00
2023-04-16T02:45:44.611Z,0.00
2023-04-16T02:46:44.463Z,0.00
2023-04-16T02:47:44.507Z,0.00
2023-04-16T02:48:44.444Z,0.00
2023-04-16T02:49:44.520Z,0.00
2023-04-16T02:50:44.407Z,0.00
2023-04-16T02:51:44.454Z,0.00
2023-04-16T02:52:44.415Z,0.00
2023-04-16T02:53:44.527Z,0.00
2023-04-16T02:54:44.377Z,0.00
2023-04-16T02:55:44.395Z,0.00
2023-04-16T02:56:44.377Z,0.00
2023-04-16T02:57:44.355Z,0.00
2023-04-16T02:58:45.106Z,0.00
2023-04-16T02:59:44.347Z,0.00
2023-04-16T03:00:44.311Z,0.00
2023-04-16T03:01:44.360Z,0.00
2023-04-16T03:02:45.057Z,0.00
2023-04-16T03:03:44.366Z,0.00
2023-04-16T03:04:44.340Z,0.00
2023-04-16T03:05:44.300Z,0.00
2023-04-16T03:06:44.273Z,0.00
2023-04-16T03:07:44.287Z,0.00
2023-04-16T03:08:44.603Z,0.00
2023-04-16T03:09:44.263Z,0.00
2023-04-16T03:10:44.333Z,0.00
2023-04-16T03:11:44.211Z,0.00
2023-04-16T03:12:44.208Z,0.00
2023-04-16T03:13:44.195Z,0.00
2023-04-16T03:14:44.600Z,0.00
2023-04-16T03:15:44.196Z,0.00
2023-04-16T03:16:44.271Z,0.00
2023-04-16T03:17:44.709Z,0.00
2023-04-16T03:18:44.148Z,0.00
2023-04-16T03:19:44.126Z,0.00
2023-04-16T03:20:44.201Z,0.00
2023-04-16T03:21:44.084Z,0.00
2023-04-16T03:22:44.097Z,0.00
2023-04-16T03:23:44.138Z,0.00
2023-04-16T03:24:44.069Z,0.00
2023-04-16T03:25:44.065Z,0.00
2023-04-16T03:26:44.084Z,0.00
2023-04-16T03:27:44.039Z,0.00
2023-04-16T03:28:44.028Z,0.00
2023-04-16T03:29:44.134Z,0.00
2023-04-16T03:30:44.516Z,0.00
2023-04-16T03:31:44.079Z,0.00
2023-04-16T03:32:44.000Z,0.00
2023-04-16T03:33:44.046Z,0.00
2023-04-16T03:34:43.987Z,0.00
2023-04-16T03:35:43.966Z,0.00
2023-04-16T03:36:44.191Z,0.00
2023-04-16T03:37:43.922Z,0.00
2023-04-16T03:38:43.980Z,0.00
2023-04-16T03:39:43.948Z,0.00
2023-04-16T03:40:43.943Z,0.00
2023-04-16T03:41:43.918Z,0.00
2023-04-16T03:42:43.887Z,0.00
2023-04-16T03:43:44.632Z,0.00
2023-04-16T03:44:43.849Z,0.00
2023-04-16T03:45:43.960Z,0.00
2023-04-16T03:46:43.877Z,0.00
2023-04-16T03:47:43.909Z,0.00
2023-04-16T03:48:43.846Z,0.00
2023-04-16T03:49:43.902Z,0.00
2023-04-16T03:50:44.009Z,0.00
2023-04-16T03:51:43.791Z,0.00
2023-04-16T03:52:43.785Z,0.00
2023-04-16T03:53:43.803Z,0.00
2023-04-16T03:54:43.767Z,0.00
2023-04-16T03:55:43.756Z,1.00
2023-04-16T03:56:43.787Z,0.00
2023-04-16T03:57:43.719Z,0.00
2023-04-16T03:58:43.761Z,0.00
2023-04-16T03:59:43.746Z,0.00
2023-04-16T04:00:43.723Z,0.00
2023-04-16T04:01:43.736Z,0.00
2023-04-16T04:02:43.915Z,0.00
2023-04-16T04:03:44.003Z,0.00
2023-04-16T04:04:43.720Z,0.00
2023-04-16T04:05:43.646Z,0.00
2023-04-16T04:06:44.388Z,1.00
2023-04-16T04:07:43.667Z,0.00
2023-04-16T04:08:43.640Z,0.00
2023-04-16T04:09:43.594Z,0.00
2023-04-16T04:10:43.585Z,0.00
2023-04-16T04:11:43.645Z,0.00
2023-04-16T04:12:43.598Z,0.00
2023-04-16T04:13:43.612Z,0.00
2023-04-16T04:14:43.489Z,1.00
2023-04-16T04:15:43.489Z,1.00
2023-04-16T04:16:43.648Z,1.00
2023-04-16T04:17:43.503Z,1.00
2023-04-16T04:18:44.554Z,0.00
2023-04-16T04:19:54.236Z,0.00
2023-04-16T04:20:43.643Z,0.00
2023-04-16T04:21:43.474Z,2.00
2023-04-16T04:22:43.405Z,2.00
2023-04-16T04:23:43.455Z,1.00
2023-04-16T04:24:43.385Z,1.00
2023-04-16T04:25:43.423Z,1.00
2023-04-16T04:26:43.404Z,3.00
2023-04-16T04:27:43.379Z,2.00
2023-04-16T04:28:43.345Z,2.00
2023-04-16T04:29:43.334Z,3.00
2023-04-16T04:30:43.387Z,1.00
2023-04-16T04:31:44.039Z,2.00
2023-04-16T04:32:43.364Z,3.00
2023-04-16T04:33:43.326Z,10.00
2023-04-16T04:34:43.360Z,10.00
2023-04-16T04:35:43.288Z,10.00
2023-04-16T04:36:43.296Z,10.00
2023-04-16T04:37:43.300Z,10.00
2023-04-16T04:38:43.674Z,8.00
2023-04-16T04:39:43.252Z,11.00
2023-04-16T04:40:43.600Z,11.00
2023-04-16T04:41:43.216Z,12.00
2023-04-16T04:42:43.230Z,12.00
2023-04-16T04:43:43.211Z,10.00
2023-04-16T04:44:43.218Z,9.00
2023-04-16T04:45:43.229Z,19.00
2023-04-16T04:46:43.192Z,19.00
2023-04-16T04:47:43.573Z,21.00
2023-04-16T04:48:43.121Z,22.00
2023-04-16T04:49:43.186Z,23.00
2023-04-16T04:50:43.133Z,23.00
2023-04-16T04:51:43.138Z,24.00
2023-04-16T04:52:43.159Z,26.00
2023-04-16T04:53:43.262Z,28.00
2023-04-16T04:54:43.101Z,32.00
2023-04-16T04:55:43.079Z,36.00
2023-04-16T04:56:43.132Z,42.00
2023-04-16T04:57:43.090Z,44.00
2023-04-16T04:58:43.124Z,54.00
2023-04-16T04:59:43.114Z,53.00
2023-04-16T05:00:43.038Z,49.00
2023-04-16T05:01:43.016Z,43.00
2023-04-16T05:02:43.134Z,44.00
2023-04-16T05:03:43.194Z,49.00
2023-04-16T05:04:43.169Z,52.00
2023-04-16T05:05:42.960Z,56.00
2023-04-16T05:06:43.104Z,54.00
2023-04-16T05:07:42.972Z,55.00
2023-04-16T05:08:42.976Z,52.00
2023-04-16T05:09:43.011Z,60.00
2023-04-16T05:10:42.952Z,52.00
2023-04-16T05:11:42.915Z,48.00
2023-04-16T05:12:42.977Z,49.00
2023-04-16T05:13:42.886Z,48.00
2023-04-16T05:14:42.918Z,42.00
2023-04-16T05:15:43.002Z,41.00
2023-04-16T05:16:42.930Z,43.00
2023-04-16T05:17:42.962Z,37.00
2023-04-16T05:18:42.839Z,30.00
2023-04-16T05:19:43.052Z,30.00
2023-04-16T05:20:42.832Z,33.00
2023-04-16T05:21:42.866Z,33.00
2023-04-16T05:22:42.842Z,30.00
2023-04-16T05:23:43.183Z,28.00
2023-04-16T05:24:42.857Z,30.00
2023-04-16T05:25:42.794Z,33.00
2023-04-16T05:26:42.787Z,40.00
2023-04-16T05:27:42.739Z,51.00
2023-04-16T05:28:42.841Z,89.00
2023-04-16T05:29:42.762Z,102.00
2023-04-16T05:30:42.820Z,130.00
2023-04-16T05:31:42.908Z,139.00
2023-04-16T05:32:42.721Z,94.00
2023-04-16T05:33:42.730Z,98.00
2023-04-16T05:34:42.824Z,93.00
2023-04-16T05:35:42.648Z,85.00
2023-04-16T05:36:42.692Z,93.00
2023-04-16T05:37:42.653Z,104.00
2023-04-16T05:38:42.638Z,95.00
2023-04-16T05:39:42.681Z,110.00
2023-04-16T05:40:42.772Z,112.00
2023-04-16T05:41:42.646Z,82.00
2023-04-16T05:42:42.601Z,139.00
2023-04-16T05:43:42.600Z,132.00
2023-04-16T05:44:42.623Z,157.00
2023-04-16T05:45:42.564Z,148.00
2023-04-16T05:46:42.588Z,123.00
2023-04-16T05:47:42.605Z,119.00
2023-04-16T05:48:42.525Z,117.00
2023-04-16T05:49:42.570Z,136.00
2023-04-16T05:50:42.594Z,146.00
2023-04-16T05:51:42.529Z,149.00
2023-04-16T05:52:42.503Z,151.00
2023-04-16T05:53:42.645Z,154.00
2023-04-16T05:54:42.526Z,168.00
2023-04-16T05:55:42.467Z,158.00
2023-04-16T05:56:42.629Z,160.00
2023-04-16T05:57:42.630Z,193.00
2023-04-16T05:58:42.416Z,201.00
2023-04-16T05:59:42.470Z,258.00
2023-04-16T06:00:42.414Z,360.00
2023-04-16T06:01:42.383Z,306.00
2023-04-16T06:02:42.622Z,285.00
2023-04-16T06:03:42.437Z,364.00
2023-04-16T06:04:42.480Z,357.00
2023-04-16T06:05:42.476Z,315.00
2023-04-16T06:06:42.388Z,319.00
2023-04-16T06:07:42.335Z,354.00
2023-04-16T06:08:43.024Z,382.00
2023-04-16T06:09:42.592Z,318.00
2023-04-16T06:10:42.307Z,286.00
2023-04-16T06:11:42.314Z,302.00
2023-04-16T06:12:42.312Z,274.00
2023-04-16T06:13:42.310Z,246.00
2023-04-16T06:14:42.338Z,273.00
2023-04-16T06:15:42.366Z,265.00
2023-04-16T06:16:42.356Z,238.00
2023-04-16T06:17:42.415Z,253.00
2023-04-16T06:18:42.267Z,270.00
2023-04-16T06:19:42.321Z,306.00
2023-04-16T06:20:42.238Z,336.00
2023-04-16T06:21:42.215Z,331.00
2023-04-16T06:22:42.188Z,328.00
2023-04-16T06:23:42.175Z,313.00
2023-04-16T06:24:42.194Z,270.00
2023-04-16T06:25:42.138Z,288.00
2023-04-16T06:26:42.157Z,373.00
2023-04-16T06:27:42.377Z,296.00
2023-04-16T06:28:42.118Z,293.00
2023-04-16T06:29:42.128Z,326.00
2023-04-16T06:30:44.052Z,347.00
2023-04-16T06:31:42.248Z,266.00
2023-04-16T06:32:42.218Z,260.00
2023-04-16T06:33:42.082Z,280.00
2023-04-16T06:34:42.068Z,308.00
2023-04-16T06:35:42.275Z,265.00
2023-04-16T06:36:42.099Z,244.00
2023-04-16T06:37:42.037Z,237.00
2023-04-16T06:38:42.019Z,270.00
2023-04-16T06:39:42.048Z,325.00
2023-04-16T06:40:42.563Z,309.00
2023-04-16T06:41:42.000Z,291.00
2023-04-16T06:42:43.587Z,290.00
2023-04-16T06:43:41.963Z,358.00
2023-04-16T06:44:41.992Z,295.00
2023-04-16T06:45:41.955Z,338.00
2023-04-16T06:46:41.996Z,409.00
2023-04-16T06:47:41.979Z,390.00
2023-04-16T06:48:42.043Z,390.00
2023-04-16T06:49:41.962Z,391.00
2023-04-16T06:50:41.935Z,362.00
2023-04-16T06:51:41.870Z,368.00
2023-04-16T06:52:41.916Z,385.00
2023-04-16T06:53:41.982Z,406.00
2023-04-16T06:54:42.033Z,383.00
2023-04-16T06:55:42.518Z,453.00
2023-04-16T06:56:41.906Z,518.00
2023-04-16T06:57:41.912Z,508.00
2023-04-16T06:58:41.851Z,516.00
2023-04-16T06:59:43.407Z,551.00
2023-04-16T07:00:41.870Z,570.00
2023-04-16T07:01:41.782Z,560.00
2023-04-16T07:02:41.915Z,525.00
2023-04-16T07:03:42.773Z,539.00
2023-04-16T07:04:41.750Z,512.00
2023-04-16T07:05:41.811Z,484.00
2023-04-16T07:06:41.737Z,441.00
2023-04-16T07:07:41.764Z,443.00
2023-04-16T07:08:41.723Z,416.00
2023-04-16T07:09:41.700Z,379.00
2023-04-16T07:10:41.738Z,361.00
2023-04-16T07:11:41.713Z,348.00
2023-04-16T07:12:41.708Z,371.00
2023-04-16T07:13:41.648Z,388.00
2023-04-16T07:14:41.705Z,410.00
2023-04-16T07:15:41.642Z,432.00
2023-04-16T07:16:41.739Z,468.00
2023-04-16T07:17:41.693Z,502.00
2023-04-16T07:18:41.644Z,530.00
2023-04-16T07:19:41.702Z,500.00
2023-04-16T07:20:41.595Z,498.00
2023-04-16T07:21:41.579Z,493.00
2023-04-16T07:22:41.617Z,501.00
2023-04-16T07:23:41.568Z,473.00
2023-04-16T07:24:41.571Z,473.00
2023-04-16T07:25:41.580Z,477.00
2023-04-16T07:26:41.538Z,485.00
2023-04-16T07:27:41.647Z,494.00
2023-04-16T07:28:41.519Z,504.00
2023-04-16T07:29:41.614Z,485.00
2023-04-16T07:30:42.040Z,494.00
2023-04-16T07:31:41.556Z,503.00
2023-04-16T07:32:41.687Z,499.00
2023-04-16T07:33:41.503Z,484.00
2023-04-16T07:34:41.491Z,447.00
2023-04-16T07:35:41.440Z,450.00
2023-04-16T07:36:41.467Z,458.00
2023-04-16T07:37:41.412Z,433.00
2023-04-16T07:38:41.470Z,427.00
2023-04-16T07:39:41.409Z,416.00
2023-04-16T07:40:41.603Z,412.00
2023-04-16T07:41:41.406Z,431.00
2023-04-16T07:42:41.599Z,448.00
2023-04-16T07:43:41.380Z,457.00
2023-04-16T07:44:41.353Z,452.00
2023-04-16T07:45:41.509Z,464.00
2023-04-16T07:46:46.785Z,481.00
2023-04-16T07:47:41.434Z,488.00
2023-04-16T07:48:41.372Z,476.00
2023-04-16T07:49:41.324Z,486.00
2023-04-16T07:50:41.359Z,467.00
2023-04-16T07:51:41.687Z,475.00
2023-04-16T07:52:41.299Z,441.00
2023-04-16T07:53:41.280Z,500.00
2023-04-16T07:54:41.273Z,434.00
2023-04-16T07:55:41.271Z,518.00
2023-04-16T07:56:41.247Z,494.00
2023-04-16T07:57:41.250Z,488.00
2023-04-16T07:58:41.266Z,455.00
2023-04-16T07:59:41.235Z,525.00
2023-04-16T08:00:41.200Z,583.00
2023-04-16T08:01:41.226Z,485.00
2023-04-16T08:02:41.336Z,498.00
2023-04-16T08:03:41.531Z,563.00
2023-04-16T08:04:41.489Z,561.00
2023-04-16T08:05:41.168Z,489.00
2023-04-16T08:06:41.231Z,475.00
2023-04-16T08:07:41.151Z,492.00
2023-04-16T08:08:41.107Z,567.00
2023-04-16T08:09:41.109Z,408.00
2023-04-16T08:10:41.129Z,489.00
2023-04-16T08:11:41.085Z,506.00
2023-04-16T08:12:41.100Z,497.00
2023-04-16T08:13:41.049Z,528.00
2023-04-16T08:14:41.086Z,486.00
2023-04-16T08:15:41.085Z,502.00
2023-04-16T08:16:41.076Z,579.00
2023-04-16T08:17:41.133Z,461.00
2023-04-16T08:18:41.052Z,532.00
2023-04-16T08:19:40.999Z,503.00
2023-04-16T08:20:41.062Z,406.00
2023-04-16T08:21:40.996Z,419.00
2023-04-16T08:22:40.971Z,436.00
2023-04-16T08:23:41.221Z,386.00
2023-04-16T08:24:40.965Z,511.00
2023-04-16T08:25:40.959Z,504.00
2023-04-16T08:26:40.977Z,471.00
2023-04-16T08:27:41.587Z,545.00
2023-04-16T08:28:40.877Z,443.00
2023-04-16T08:29:40.952Z,503.00
2023-04-16T08:30:40.963Z,499.00
2023-04-16T08:31:40.907Z,522.00
2023-04-16T08:32:40.886Z,610.00
2023-04-16T08:33:40.873Z,547.00
2023-04-16T08:34:40.850Z,543.00
2023-04-16T08:35:40.868Z,603.00
2023-04-16T08:36:40.828Z,493.00
2023-04-16T08:37:40.801Z,542.00
2023-04-16T08:38:40.817Z,500.00
2023-04-16T08:39:40.842Z,551.00
2023-04-16T08:40:40.784Z,643.00
2023-04-16T08:41:40.793Z,644.00
2023-04-16T08:42:40.810Z,625.00
2023-04-16T08:43:40.798Z,636.00
2023-04-16T08:44:40.753Z,585.00
2023-04-16T08:45:40.734Z,566.00
2023-04-16T08:46:40.880Z,670.00
2023-04-16T08:47:41.157Z,750.00
2023-04-16T08:48:40.691Z,788.00
2023-04-16T08:49:40.700Z,781.00
2023-04-16T08:50:40.711Z,912.00
2023-04-16T08:51:40.696Z,757.00
2023-04-16T08:52:40.651Z,722.00
2023-04-16T08:53:40.743Z,991.00
2023-04-16T08:54:40.657Z,866.00
2023-04-16T08:55:40.663Z,1012.00
2023-04-16T08:56:42.872Z,1068.00
2023-04-16T08:57:40.646Z,973.00
2023-04-16T08:58:40.602Z,901.00
2023-04-16T08:59:40.636Z,718.00
2023-04-16T09:00:40.608Z,1034.00
2023-04-16T09:01:40.613Z,1117.00
2023-04-16T09:02:40.819Z,1192.00
2023-04-16T09:03:40.739Z,895.00
2023-04-16T09:04:40.741Z,1239.00
2023-04-16T09:05:40.601Z,1116.00
2023-04-16T09:06:40.518Z,1191.00
2023-04-16T09:07:40.491Z,1216.00
2023-04-16T09:08:40.506Z,1222.00
2023-04-16T09:09:40.503Z,1117.00
2023-04-16T09:10:40.504Z,970.00
2023-04-16T09:11:40.519Z,934.00
2023-04-16T09:12:40.459Z,819.00
2023-04-16T09:13:40.542Z,847.00
2023-04-16T09:14:41.170Z,1020.00
2023-04-16T09:15:40.540Z,842.00
2023-04-16T09:16:40.544Z,814.00
2023-04-16T09:17:40.481Z,1281.00
2023-04-16T09:18:40.573Z,1200.00
2023-04-16T09:19:40.402Z,1184.00
2023-04-16T09:20:40.369Z,995.00
2023-04-16T09:21:40.552Z,1046.00
2023-04-16T09:22:40.381Z,1044.00
2023-04-16T09:23:40.418Z,960.00
2023-04-16T09:24:40.448Z,1015.00
2023-04-16T09:25:40.464Z,1155.00
2023-04-16T09:26:40.378Z,1298.00
2023-04-16T09:27:40.377Z,1021.00
2023-04-16T09:28:40.323Z,954.00
2023-04-16T09:29:40.282Z,1245.00
2023-04-16T09:30:40.554Z,1373.00
2023-04-16T09:31:40.313Z,1254.00
2023-04-16T09:32:40.360Z,1207.00
2023-04-16T09:33:40.300Z,942.00
2023-04-16T09:34:40.275Z,964.00
2023-04-16T09:35:40.535Z,910.00
2023-04-16T09:36:40.500Z,1195.00
2023-04-16T09:37:41.167Z,1514.00
2023-04-16T09:38:40.195Z,1810.00
2023-04-16T09:39:40.165Z,1455.00
2023-04-16T09:40:40.230Z,1837.00
2023-04-16T09:41:40.132Z,1788.00
2023-04-16T09:42:40.173Z,1650.00
2023-04-16T09:43:40.123Z,1474.00
2023-04-16T09:44:40.196Z,1525.00
2023-04-16T09:45:40.164Z,1446.00
2023-04-16T09:46:40.685Z,1452.00
2023-04-16T09:47:40.160Z,1169.00
2023-04-16T09:48:40.095Z,1164.00
2023-04-16T09:49:40.205Z,1111.00
2023-04-16T09:50:40.100Z,1114.00
2023-04-16T09:51:40.934Z,1581.00
2023-04-16T09:52:40.045Z,1734.00
2023-04-16T09:53:40.030Z,1807.00
2023-04-16T09:54:40.210Z,1551.00
2023-04-16T09:55:40.098Z,1664.00
2023-04-16T09:56:40.062Z,2091.00
2023-04-16T09:57:39.976Z,2149.00
2023-04-16T09:58:39.977Z,1623.00
2023-04-16T09:59:40.011Z,1779.00
2023-04-16T10:00:43.614Z,2003.00
2023-04-16T10:01:40.036Z,2054.00
2023-04-16T10:02:40.711Z,1884.00
2023-04-16T10:03:40.426Z,1884.00
2023-04-16T10:04:40.210Z,1564.00
2023-04-16T10:05:39.929Z,1830.00
2023-04-16T10:06:40.029Z,1767.00
2023-04-16T10:07:39.882Z,1591.00
2023-04-16T10:08:39.891Z,1503.00
2023-04-16T10:09:39.893Z,1104.00
2023-04-16T10:10:39.888Z,1004.00
2023-04-16T10:11:39.852Z,1567.00
2023-04-16T10:12:39.845Z,1646.00
2023-04-16T10:13:39.853Z,1435.00
2023-04-16T10:14:39.861Z,1216.00
2023-04-16T10:15:39.868Z,1405.00
2023-04-16T10:16:39.917Z,1546.00
2023-04-16T10:17:39.946Z,1491.00
2023-04-16T10:18:39.760Z,1244.00
2023-04-16T10:19:39.783Z,1308.00
2023-04-16T10:20:39.762Z,2086.00
2023-04-16T10:21:39.824Z,1885.00
2023-04-16T10:22:39.794Z,1732.00
2023-04-16T10:23:39.755Z,2271.00
2023-04-16T10:24:39.737Z,2557.00
2023-04-16T10:25:39.824Z,2380.00
2023-04-16T10:26:39.698Z,2806.00
2023-04-16T10:27:39.782Z,2618.00
2023-04-16T10:28:39.684Z,2357.00
2023-04-16T10:29:39.729Z,2444.00
2023-04-16T10:30:39.761Z,2264.00
2023-04-16T10:31:39.682Z,2378.00
2023-04-16T10:32:39.733Z,2339.00
2023-04-16T10:33:39.635Z,2570.00
2023-04-16T10:34:39.643Z,2356.00
2023-04-16T10:35:39.621Z,2669.00
2023-04-16T10:36:39.613Z,2258.00
2023-04-16T10:37:40.196Z,2806.00
2023-04-16T10:38:39.630Z,2720.00
2023-04-16T10:39:39.580Z,2685.00
2023-04-16T10:40:39.618Z,2959.00
2023-04-16T10:41:39.598Z,2962.00
2023-04-16T10:42:39.987Z,2670.00
2023-04-16T10:43:39.565Z,2914.00
2023-04-16T10:44:40.864Z,2631.00
2023-04-16T10:45:39.533Z,3044.00
2023-04-16T10:46:39.564Z,3019.00
2023-04-16T10:47:39.527Z,2868.00
2023-04-16T10:48:49.940Z,2578.00
2023-04-16T10:49:39.472Z,2777.00
2023-04-16T10:50:39.485Z,2841.00
2023-04-16T10:51:39.508Z,2692.00
2023-04-16T10:52:39.599Z,2654.00
2023-04-16T10:53:39.432Z,2616.00
2023-04-16T10:54:39.416Z,2406.00
2023-04-16T10:55:39.441Z,2302.00
2023-04-16T10:56:39.427Z,2101.00
2023-04-16T10:57:39.382Z,2037.00
2023-04-16T10:58:39.401Z,1808.00
2023-04-16T10:59:39.374Z,1584.00
2023-04-16T11:00:39.353Z,1278.00
2023-04-16T11:01:39.482Z,1142.00
2023-04-16T11:02:39.579Z,1058.00
2023-04-16T11:03:39.512Z,977.00
2023-04-16T11:04:39.421Z,871.00
2023-04-16T11:05:39.312Z,824.00
2023-04-16T11:06:39.312Z,691.00
2023-04-16T11:07:39.312Z,668.00
2023-04-16T11:08:53.327Z,628.00
2023-04-16T11:09:39.287Z,499.00
2023-04-16T11:10:39.276Z,467.00
2023-04-16T11:11:39.300Z,481.00
2023-04-16T11:12:39.283Z,456.00
2023-04-16T11:13:39.229Z,476.00
2023-04-16T11:14:39.221Z,466.00
2023-04-16T11:15:39.294Z,542.00
2023-04-16T11:16:39.177Z,458.00
2023-04-16T11:17:39.423Z,496.00
2023-04-16T11:18:39.206Z,467.00
2023-04-16T11:19:39.196Z,515.00
2023-04-16T11:20:39.171Z,542.00
2023-04-16T11:21:39.185Z,467.00
2023-04-16T11:22:39.161Z,465.00
2023-04-16T11:23:39.138Z,596.00
2023-04-16T11:24:39.128Z,620.00
2023-04-16T11:25:39.128Z,660.00
2023-04-16T11:26:39.119Z,709.00
2023-04-16T11:27:39.071Z,642.00
2023-04-16T11:28:39.123Z,601.00
2023-04-16T11:29:39.094Z,671.00
2023-04-16T11:30:39.072Z,649.00
2023-04-16T11:31:39.225Z,625.00
2023-04-16T11:32:39.035Z,636.00
2023-04-16T11:33:39.076Z,752.00
2023-04-16T11:34:39.013Z,711.00
2023-04-16T11:35:39.058Z,752.00
2023-04-16T11:36:38.991Z,723.00
2023-04-16T11:37:39.012Z,623.00
2023-04-16T11:38:38.976Z,594.00
2023-04-16T11:39:38.952Z,782.00
2023-04-16T11:40:39.002Z,815.00
2023-04-16T11:41:38.965Z,729.00
2023-04-16T11:42:39.009Z,725.00
2023-04-16T11:43:38.922Z,705.00
2023-04-16T11:44:38.926Z,701.00
2023-04-16T11:45:38.957Z,738.00
2023-04-16T11:46:38.931Z,740.00
2023-04-16T11:47:39.085Z,863.00
2023-04-16T11:48:38.862Z,806.00
2023-04-16T11:49:38.878Z,825.00
2023-04-16T11:50:38.922Z,743.00
2023-04-16T11:51:38.824Z,830.00
2023-04-16T11:52:38.900Z,745.00
2023-04-16T11:53:38.855Z,781.00
2023-04-16T11:54:38.817Z,838.00
2023-04-16T11:55:38.824Z,830.00
2023-04-16T11:56:38.791Z,817.00
2023-04-16T11:57:38.846Z,837.00
2023-04-16T11:58:38.782Z,891.00
2023-04-16T12:00:01.362Z,917.00
2023-04-16T12:00:38.747Z,906.00
2023-04-16T12:01:38.743Z,879.00
2023-04-16T12:02:38.902Z,798.00
2023-04-16T12:03:38.961Z,827.00
2023-04-16T12:04:38.840Z,843.00
2023-04-16T12:05:38.865Z,798.00
2023-04-16T12:06:38.702Z,783.00
2023-04-16T12:07:38.689Z,777.00
2023-04-16T12:08:38.677Z,862.00
2023-04-16T12:09:40.581Z,804.00
2023-04-16T12:10:38.660Z,803.00
2023-04-16T12:11:38.647Z,936.00
2023-04-16T12:12:38.700Z,893.00
2023-04-16T12:13:38.631Z,1053.00
2023-04-16T12:14:38.637Z,1023.00
2023-04-16T12:15:38.600Z,1043.00
2023-04-16T12:16:38.635Z,1053.00
2023-04-16T12:17:38.671Z,1127.00
2023-04-16T12:18:38.596Z,1161.00
2023-04-16T12:19:38.584Z,1168.00
2023-04-16T12:20:38.531Z,1065.00
2023-04-16T12:21:38.590Z,996.00
2023-04-16T12:22:38.561Z,1034.00
2023-04-16T12:23:38.557Z,1193.00
2023-04-16T12:24:38.523Z,1254.00
2023-04-16T12:25:38.496Z,1237.00
2023-04-16T12:26:38.497Z,1259.00
2023-04-16T12:27:38.464Z,1330.00
2023-04-16T12:28:38.571Z,1314.00
2023-04-16T12:29:38.472Z,1291.00
2023-04-16T12:30:38.504Z,1277.00
2023-04-16T12:31:38.479Z,1298.00
2023-04-16T12:32:38.706Z,1311.00
2023-04-16T12:33:38.470Z,1426.00
2023-04-16T12:34:48.556Z,1395.00
2023-04-16T12:35:38.406Z,1529.00
2023-04-16T12:36:38.377Z,1543.00
2023-04-16T12:37:38.385Z,1464.00
2023-04-16T12:38:38.365Z,1556.00
2023-04-16T12:39:38.393Z,1510.00
2023-04-16T12:40:38.397Z,1661.00
2023-04-16T12:41:38.330Z,1629.00
2023-04-16T12:42:38.344Z,1740.00
2023-04-16T12:43:38.355Z,1702.00